Fayette, Missouri
Current Conditions -  °F | °C
As of 6:35 AM on Wednesday 26 Nov 2014 (Local Time) from KVER Reporting Station
Light Snow Light Snow  
Wind Chill: 33°   Ceiling: 2600
Heat Index: 33°   Visibility: 7mi
Dew Point: 23°   Wind: 3mph
Humidity: 66%   Direction: 200°SSW
Pressure: 29.97"   Gusts: NA
Location:  39.15°N, 92.68°W
Report Text: KVER 261235Z AUTO 20003KT 7SM -SN BKN026 BKN032 OVC045 01/M05 A2997 RMK AO2 T00081050
Loading
Personal Weather Stations






























Interactive Weather Map New forecast layout! Learn more

10-Day Weather Forecast

Advertisements
Track Severe Weather on mobile